Flight Track Log - Related Links

Times and Time Zones

All times are in EDT time to prevent confusion due to time zone crossing. See the TAM3201 flight status page for this flight to view local times or setup timezone preferences in your user account.

Time Position Orientation Groundspeed Altitude Reporting Facility
EDT Latitude Longitude Course Direction KTS MPH feet Rate Location/Type
Sat 07:16:00 AM -20.6368 -44.6274 212° Southwest  Level Estimated
Sat 07:17:00 AM -20.6994 -44.6688 212° Southwest  Level Estimated
Sat 07:18:00 AM -20.7620 -44.7103 212° Southwest  Level Estimated
Sat 07:19:00 AM -20.8246 -44.7518 212° Southwest  Level Estimated
Sat 07:20:00 AM -20.8872 -44.7934 212° Southwest  Level Estimated
Sat 07:21:00 AM -20.9498 -44.8350 212° Southwest  Level Estimated
Sat 07:22:00 AM -21.0123 -44.8766 212° Southwest  Level Estimated
Sat 07:23:00 AM -21.0749 -44.9182 212° Southwest  Level Estimated
Sat 07:24:00 AM -21.1374 -44.9599 212° Southwest  Level Estimated
Sat 07:25:00 AM -21.1999 -45.0017 212° Southwest  Level Estimated
Sat 07:26:00 AM -21.2624 -45.0434 212° Southwest  Level Estimated
Sat 07:27:00 AM -21.3250 -45.0852 212° Southwest  Level Estimated
Sat 07:28:00 AM -21.3875 -45.1270 212° Southwest  Level Estimated
Sat 07:29:00 AM -21.4499 -45.1689 212° Southwest  Level Estimated
Sat 07:30:00 AM -21.5124 -45.2108 212° Southwest  Level Estimated
Sat 07:31:00 AM -21.5749 -45.2527 212° Southwest  Level Estimated
Sat 07:32:00 AM -21.6374 -45.2947 212° Southwest  Level Estimated
Sat 07:33:00 AM -21.6998 -45.3367 212° Southwest  Level Estimated
Sat 07:34:00 AM -21.7622 -45.3787 212° Southwest  Level Estimated
Sat 07:35:00 AM -21.8349 -45.4277 212° Southwest  Level Estimated
Sat 07:36:00 AM -21.9075 -45.4767 212° Southwest  Level Estimated
Sat 07:37:00 AM -21.9801 -45.5258 212° Southwest  Level Estimated
Sat 07:38:00 AM -22.0527 -45.5749 212° Southwest  Level Estimated
Sat 07:39:00 AM -22.1253 -45.6241 212° Southwest  Level Estimated
Sat 07:40:00 AM -22.1978 -45.6733 212° Southwest  Level Estimated
Sat 07:41:00 AM -22.2704 -45.7226 212° Southwest  Level Estimated
Sat 07:42:00 AM -22.3429 -45.7719 212° Southwest  Level Estimated
Sat 07:43:00 AM -22.4154 -45.8213 212° Southwest  Level Estimated
Sat 07:44:00 AM -22.4879 -45.8707 212° Southwest  Level Estimated
Sat 07:45:00 AM -22.5604 -45.9202 212° Southwest  Level Estimated
Sat 07:46:00 AM -22.6329 -45.9697 212° Southwest  Level Estimated
Sat 07:47:00 AM -22.7054 -46.0193 212° Southwest  Level Estimated
Sat 07:48:00 AM -22.7778 -46.0690 212° Southwest  Level Estimated
Sat 07:49:00 AM -22.8502 -46.1186 212° Southwest  Level Estimated
Sat 07:50:00 AM -22.9226 -46.1684 212° Southwest  Level Estimated
Sat 07:51:00 AM -22.9950 -46.2182 212° Southwest  Level Estimated
Sat 07:52:00 AM -23.0674 -46.2680 212° Southwest  Level Estimated
Sat 07:53:00 AM -23.1398 -46.3179 212° Southwest  Level Estimated
Sat 07:54:00 AM -23.2121 -46.3679 212° Southwest  Level Estimated
Sat 07:55:00 AM -23.2845 -46.4179 212° Southwest  Level Estimated
Sat 07:56:00 AM -23.3568 -46.4679 212° Southwest  Level Estimated
Sat 07:57:00 AM -23.4291 -46.5181 212° Southwest  Level Estimated
Sat 07:58:00 AM -23.5014 -46.5682 212° Southwest  Level Estimated
Sat 07:59:00 AM -23.5736 -46.6185 212° Southwest  Level Estimated
Sat 08:00:00 AM -23.6267 -46.6554 213° Southwest  Level Estimated
Sat 08:01:00 AM -23.6267 -46.6554 114° Southeast  Level Estimated
Sat 08:02:00 AM -23.6267 -46.6554 114° Southeast  Level Estimated
Sat 08:03:00 AM -23.6267 -46.6554 114° Southeast  Level Estimated
Sat 08:04:00 AM -23.6267 -46.6554 114° Southeast  Level Estimated
Sat 08:05:00 AM -23.6267 -46.6554 114° Southeast  Level Estimated
Sat 08:06:00 AM -23.6267 -46.6554 114° Southeast  Level Estimated
Sat 08:07:00 AM -23.6267 -46.6554 114° Southeast  Level Estimated
Sat 08:08:00 AM -23.6267 -46.6554 114° Southeast  Level Estimated
Sat 08:09:00 AM -23.6267 -46.6554 114° Southeast  Level Estimated
Sat 08:10:00 AM -23.6267 -46.6554 114° Southeast  Level Estimated
Sat 08:11:00 AM -23.6267 -46.6554 114° Southeast  Level Estimated

Login

Don't have an account? Register now (free) for customized features, flight alerts, and more!